Time;durP1;ratioP1;P1;durP2;ratioP2;P2;SDS_P1;SDS_P2;PMS_P1;PMS_P2;Temp;Humidity;BMP_temperature;BMP_pressure;BME280_temperature;BME280_humidity;BME280_pressure;Samples;Min_cycle;Max_cycle;Signal;HPM_P1;HPM_P2
2022/08/24 00:01:18;;;;;;;41.80;7.70;;;;;;;21.18;63.54;98956.73;105981;1276;95265;-66
2022/08/24 00:03:48;;;;;;;40.70;8.50;;;;;;;21.12;63.44;98957.93;105987;1275;112268;-68
2022/08/24 00:06:26;;;;;;;46.10;9.80;;;;;;;21.07;63.42;98958.13;106100;1277;97749;-69
2022/08/24 00:08:59;;;;;;;42.80;8.90;;;;;;;21.02;63.64;98959.62;105982;1275;105982;-67
2022/08/24 00:11:27;;;;;;;39.60;9.10;;;;;;;21.00;63.75;98963.40;106014;1276;97893;-68
2022/08/24 00:13:56;;;;;;;41.20;8.30;;;;;;;20.97;63.95;98961.00;106021;1276;97904;-68
2022/08/24 00:16:26;;;;;;;40.30;8.70;;;;;;;20.95;64.03;98970.55;105971;1276;112149;-67
2022/08/24 00:18:59;;;;;;;43.60;9.70;;;;;;;20.93;63.87;98976.41;105976;1276;98706;-67
2022/08/24 00:21:30;;;;;;;38.10;7.80;;;;;;;20.91;63.99;98980.94;105956;1276;106832;-68
2022/08/24 00:24:01;;;;;;;49.90;9.50;;;;;;;20.89;64.03;98982.08;105920;1276;97112;-67
2022/08/24 00:26:34;;;;;;;41.40;8.30;;;;;;;20.86;64.20;98982.44;105969;1276;95291;-68
2022/08/24 00:29:05;;;;;;;43.90;9.90;;;;;;;20.82;64.28;98983.58;105964;1276;111427;-68
2022/08/24 00:31:37;;;;;;;41.60;9.40;;;;;;;20.80;64.35;98986.20;106024;1276;97911;-67
2022/08/24 00:34:05;;;;;;;37.50;8.20;;;;;;;20.76;64.16;98986.79;105955;1276;107572;-67
2022/08/24 00:36:37;;;;;;;39.50;9.20;;;;;;;20.74;64.43;98983.14;105961;1276;95203;-69
2022/08/24 00:39:08;;;;;;;40.00;8.50;;;;;;;20.73;64.47;98984.67;106085;1276;97889;-69
2022/08/24 00:41:43;;;;;;;38.70;8.10;;;;;;;20.72;64.49;98985.17;106042;1275;111450;-69
2022/08/24 00:44:15;;;;;;;42.30;9.20;;;;;;;20.71;64.60;98985.25;105973;1276;95231;-69
2022/08/24 00:47:06;;;;;;;38.30;8.60;;;;;;;20.69;64.81;98984.34;106121;1276;106550;-69
2022/08/24 00:49:48;;;;;;;41.30;8.10;;;;;;;20.68;64.67;98984.70;106048;1276;98558;-70
2022/08/24 00:52:40;;;;;;;38.90;8.20;;;;;;;20.64;64.63;98986.71;106095;1275;97866;-68
2022/08/24 00:55:34;;;;;;;39.30;8.20;;;;;;;20.59;64.79;98983.51;106004;1277;112026;-68
2022/08/24 00:58:14;;;;;;;39.70;9.10;;;;;;;20.55;64.92;98985.05;105977;1277;97970;-68
2022/08/24 01:01:02;;;;;;;44.10;8.90;;;;;;;20.53;64.92;98988.23;105963;1276;108424;-67
2022/08/24 01:03:34;;;;;;;39.30;8.50;;;;;;;20.52;65.07;98993.41;105953;1276;95400;-67
2022/08/24 01:06:05;;;;;;;40.10;8.30;;;;;;;20.52;65.14;98994.84;106093;1277;97918;-67
2022/08/24 01:08:35;;;;;;;38.30;7.50;;;;;;;20.51;65.25;98994.16;106106;1276;111433;-67
2022/08/24 01:11:16;;;;;;;43.10;9.10;;;;;;;20.50;65.17;98991.56;106119;1276;97973;-69
2022/08/24 01:13:49;;;;;;;37.30;8.00;;;;;;;20.49;65.33;98991.36;106036;1275;106127;-68
2022/08/24 01:19:38;;;;;;;39.10;9.70;;;;;;;20.46;65.37;98993.04;105975;1276;96363;-67
2022/08/24 01:22:36;;;;;;;38.70;8.10;;;;;;;20.43;65.44;98996.23;105904;1276;111960;-67
2022/08/24 01:25:08;;;;;;;32.20;7.20;;;;;;;20.42;65.66;98996.48;106029;1276;97743;-67
2022/08/24 01:27:40;;;;;;;33.00;7.30;;;;;;;20.42;65.57;98993.63;106106;1276;108835;-67
2022/08/24 01:30:13;;;;;;;36.70;8.50;;;;;;;20.41;65.56;98999.52;106056;1277;97976;-69
2022/08/24 01:32:54;;;;;;;36.00;8.80;;;;;;;20.38;65.58;99003.27;106084;1277;97883;-67
2022/08/24 01:35:28;;;;;;;37.50;9.10;;;;;;;20.36;65.76;99008.02;105997;1276;112568;-68
2022/08/24 01:38:04;;;;;;;40.20;8.20;;;;;;;20.34;65.80;99003.14;106011;1277;97877;-67
2022/08/24 01:40:38;;;;;;;36.50;9.40;;;;;;;20.33;65.68;99004.02;105967;1277;107951;-66
2022/08/24 01:43:12;;;;;;;37.70;9.20;;;;;;;20.31;65.79;99005.14;105964;1276;97026;-66
2022/08/24 01:45:43;;;;;;;34.90;8.40;;;;;;;20.30;65.93;99006.73;105987;1276;97865;-70
2022/08/24 01:48:13;;;;;;;41.90;8.70;;;;;;;20.27;65.99;99006.88;106134;1276;111411;-68
2022/08/24 01:50:52;;;;;;;39.40;9.20;;;;;;;20.25;66.13;99008.38;106080;1277;97915;-69
2022/08/24 01:53:20;;;;;;;33.00;7.70;;;;;;;20.22;66.11;99009.73;105997;1276;108547;-69
2022/08/24 01:55:49;;;;;;;34.20;9.30;;;;;;;20.18;66.07;99007.73;105966;1277;97839;-72
2022/08/24 01:58:20;;;;;;;32.60;9.40;;;;;;;20.14;66.22;99004.17;105972;1276;95268;-69
2022/08/24 02:00:48;;;;;;;33.20;8.30;;;;;;;20.10;66.19;99001.59;106009;1277;111905;-69
2022/08/24 02:03:23;;;;;;;36.00;8.40;;;;;;;20.07;66.35;99008.59;105986;1277;97989;-68
2022/08/24 02:06:00;;;;;;;36.60;9.10;;;;;;;20.05;66.49;99020.67;105998;1277;108259;-69
2022/08/24 02:08:29;;;;;;;35.30;7.60;;;;;;;20.04;66.54;99032.52;106011;1277;97911;-68
2022/08/24 02:10:59;;;;;;;35.80;8.70;;;;;;;20.03;66.65;99033.16;106110;1275;97999;-68
2022/08/24 02:13:27;;;;;;;32.90;7.80;;;;;;;20.02;66.54;99029.11;106006;1277;111474;-69
2022/08/24 02:15:57;;;;;;;35.50;8.80;;;;;;;20.01;66.73;99027.67;105997;1277;97969;-69
2022/08/24 02:18:28;;;;;;;30.50;8.30;;;;;;;20.00;66.55;99027.94;105970;1277;106719;-68
2022/08/24 02:21:02;;;;;;;30.90;8.80;;;;;;;19.98;66.76;99028.15;105878;1277;97883;-69
2022/08/24 02:23:30;;;;;;;34.00;8.30;;;;;;;19.95;66.86;99025.44;105976;1275;97873;-67
2022/08/24 02:25:59;;;;;;;44.10;12.10;;;;;;;19.89;66.68;99022.85;105949;1277;111950;-70
2022/08/24 02:28:34;;;;;;;42.60;10.00;;;;;;;19.83;66.80;99020.78;106014;1277;97890;-68
2022/08/24 02:31:08;;;;;;;36.50;9.90;;;;;;;19.82;66.88;99025.98;105996;1275;107770;-68
2022/08/24 02:33:40;;;;;;;38.10;9.60;;;;;;;19.79;67.01;99024.45;105945;1278;97903;-67
2022/08/24 02:36:12;;;;;;;33.30;8.80;;;;;;;19.76;66.94;99028.73;105960;1278;97893;-68
2022/08/24 02:38:57;;;;;;;35.80;9.10;;;;;;;19.71;67.08;99028.39;106012;1277;111984;-68
2022/08/24 02:41:29;;;;;;;32.90;10.20;;;;;;;19.68;67.21;99026.75;106098;1276;97893;-68
2022/08/24 02:44:01;;;;;;;38.30;10.30;;;;;;;19.66;67.14;99027.36;106092;1277;107768;-68
2022/08/24 02:46:33;;;;;;;37.20;10.10;;;;;;;19.64;67.39;99025.70;106018;1277;95388;-68
2022/08/24 02:49:04;;;;;;;38.30;10.60;;;;;;;19.64;67.45;99019.64;106116;1277;98541;-69
2022/08/24 02:51:46;;;;;;;30.80;9.90;;;;;;;19.62;67.47;99023.38;106077;1277;112578;-69
2022/08/24 02:54:17;;;;;;;44.50;14.00;;;;;;;19.59;67.48;99023.55;106071;1277;97985;-67
2022/08/24 02:56:49;;;;;;;42.40;13.80;;;;;;;19.54;67.64;99025.89;106036;1277;108766;-68
2022/08/24 02:59:21;;;;;;;46.30;16.50;;;;;;;19.53;67.69;99025.77;105982;1278;95273;-67
2022/08/24 03:01:51;;;;;;;42.60;18.00;;;;;;;19.51;67.67;99026.44;105987;1278;95356;-68
2022/08/24 03:04:20;;;;;;;37.40;16.70;;;;;;;19.49;67.74;99028.09;105981;1277;111997;-69
2022/08/24 03:06:51;;;;;;;40.20;17.00;;;;;;;19.48;67.87;99031.10;105986;1277;98866;-70
2022/08/24 03:09:19;;;;;;;47.60;18.30;;;;;;;19.47;68.01;99032.27;105978;1277;108435;-69
2022/08/24 03:11:51;;;;;;;46.40;17.50;;;;;;;19.46;68.02;99034.16;106033;1277;97874;-69
2022/08/24 03:14:21;;;;;;;41.80;17.80;;;;;;;19.46;68.12;99033.12;106002;1277;96402;-68
2022/08/24 03:16:51;;;;;;;40.30;17.40;;;;;;;19.47;68.20;99035.73;105992;1277;112004;-69
2022/08/24 03:19:21;;;;;;;50.30;21.20;;;;;;;19.47;68.10;99037.80;106104;1277;97880;-68
2022/08/24 03:21:52;;;;;;;49.80;21.70;;;;;;;19.47;68.14;99037.84;106113;1274;107395;-69
2022/08/24 03:24:23;;;;;;;43.50;21.50;;;;;;;19.47;68.36;99035.48;106037;1274;96084;-68
2022/08/24 03:26:56;;;;;;;40.30;19.40;;;;;;;19.47;68.34;99036.97;106026;1278;97883;-69
2022/08/24 03:29:26;;;;;;;38.50;18.70;;;;;;;19.46;68.49;99032.75;106048;1277;110594;-68
2022/08/24 03:32:03;;;;;;;48.70;20.70;;;;;;;19.44;68.40;99027.93;106065;1278;98502;-69
2022/08/24 03:34:38;;;;;;;50.60;20.00;;;;;;;19.43;68.53;99029.31;106138;1278;107784;-69
2022/08/24 03:37:09;;;;;;;34.80;17.10;;;;;;;19.42;68.58;99031.06;106027;1277;95288;-66
2022/08/24 03:39:40;;;;;;;43.90;18.20;;;;;;;19.39;68.51;99037.10;106111;1277;95407;-67
2022/08/24 03:42:08;;;;;;;42.30;17.60;;;;;;;19.37;68.69;99038.25;105942;1276;112098;-69
2022/08/24 03:44:36;;;;;;;38.10;18.80;;;;;;;19.37;68.77;99033.05;105940;1277;96456;-68
2022/08/24 03:47:09;;;;;;;40.40;18.20;;;;;;;19.37;68.79;99033.42;105965;1277;108356;-69
2022/08/24 03:49:39;;;;;;;41.70;19.80;;;;;;;19.37;68.84;99030.19;105824;1278;98045;-69
2022/08/24 03:52:07;;;;;;;45.20;18.40;;;;;;;19.36;68.80;99039.65;103593;1277;3366081;-70
2022/08/24 03:54:38;;;;;;;40.40;18.00;;;;;;;19.34;68.99;99041.23;105979;1276;112309;-70
2022/08/24 03:57:07;;;;;;;39.80;16.70;;;;;;;19.36;68.98;99044.16;105978;1277;98632;-72
2022/08/24 03:59:37;;;;;;;43.50;16.20;;;;;;;19.33;69.10;99050.73;105894;1276;109112;-70
2022/08/24 04:02:17;;;;;;;38.80;16.10;;;;;;;19.31;69.16;99049.86;105908;1277;97901;-70
2022/08/24 04:04:47;;;;;;;36.20;17.20;;;;;;;19.30;69.21;99047.40;106018;1277;97888;-67
2022/08/24 04:07:21;;;;;;;42.70;17.50;;;;;;;19.31;69.36;99045.88;105950;1276;112561;-67
2022/08/24 04:09:49;;;;;;;34.60;15.70;;;;;;;19.33;69.32;99048.41;105951;1277;97912;-67
2022/08/24 04:12:16;;;;;;;40.60;17.20;;;;;;;19.33;69.36;99048.57;106043;1277;107780;-66
2022/08/24 04:14:55;;;;;;;39.00;18.40;;;;;;;19.35;69.48;99052.49;106090;1277;97899;-69
2022/08/24 04:17:23;;;;;;;39.50;16.70;;;;;;;19.38;69.55;99053.48;106023;1277;97961;-67
2022/08/24 04:19:57;;;;;;;35.70;17.40;;;;;;;19.40;69.61;99043.67;105949;1276;112269;-71
2022/08/24 04:22:28;;;;;;;40.00;17.30;;;;;;;19.42;69.54;99047.17;105949;1276;97979;-68
2022/08/24 04:24:59;;;;;;;38.60;18.00;;;;;;;19.45;69.65;99053.77;105954;1276;107638;-63
2022/08/24 04:27:27;;;;;;;45.30;19.30;;;;;;;19.46;69.69;99054.30;106067;1277;97841;-70
2022/08/24 04:29:55;;;;;;;44.80;18.60;;;;;;;19.47;69.68;99056.86;105981;1276;97769;-67
2022/08/24 04:32:24;;;;;;;38.50;17.20;;;;;;;19.49;69.82;99053.08;105964;1276;111700;-68
2022/08/24 04:34:52;;;;;;;35.60;17.00;;;;;;;19.50;69.75;99051.06;105929;1277;97886;-68
2022/08/24 04:37:20;;;;;;;40.80;17.30;;;;;;;19.50;69.86;99046.40;105949;1276;108457;-68
2022/08/24 04:39:55;;;;;;;47.50;21.40;;;;;;;19.51;69.90;99047.52;105825;1277;97842;-69
2022/08/24 04:42:24;;;;;;;45.80;19.40;;;;;;;19.52;69.90;99053.73;105990;1276;95282;-69
2022/08/24 04:44:55;;;;;;;40.80;19.40;;;;;;;19.53;70.03;99060.73;105948;1276;111913;-69
2022/08/24 04:47:23;;;;;;;38.60;17.70;;;;;;;19.57;70.04;99064.70;105912;1277;98600;-69
2022/08/24 04:49:51;;;;;;;39.40;17.50;;;;;;;19.59;70.06;99063.99;105893;1276;108352;-69
2022/08/24 04:52:24;;;;;;;40.50;18.00;;;;;;;19.63;70.14;99058.73;105912;1277;97998;-69
2022/08/24 04:54:52;;;;;;;42.20;20.10;;;;;;;19.67;70.21;99053.90;106003;1276;96304;-69
2022/08/24 04:57:23;;;;;;;42.70;17.50;;;;;;;19.69;70.16;99046.79;105957;1276;110981;-70
2022/08/24 04:59:57;;;;;;;49.00;19.00;;;;;;;19.71;70.18;99048.07;106009;1277;97977;-68
2022/08/24 05:02:26;;;;;;;46.30;18.80;;;;;;;19.71;70.29;99053.73;106065;1277;107767;-68
2022/08/24 05:04:57;;;;;;;41.10;16.90;;;;;;;19.71;70.31;99056.02;105969;1276;97966;-67
2022/08/24 05:07:25;;;;;;;40.20;19.70;;;;;;;19.72;70.29;99057.58;106053;1276;98467;-68
2022/08/24 05:09:56;;;;;;;43.70;17.50;;;;;;;19.73;70.50;99058.14;106024;1276;112023;-68
2022/08/24 05:12:27;;;;;;;42.20;18.10;;;;;;;19.76;70.48;99070.79;106001;1277;97893;-71
2022/08/24 05:14:55;;;;;;;41.10;18.00;;;;;;;19.80;70.45;99072.15;105896;1277;107770;-70
2022/08/24 05:17:27;;;;;;;41.90;18.90;;;;;;;19.84;70.47;99072.86;106028;1277;98070;-68
2022/08/24 05:19:57;;;;;;;43.40;18.10;;;;;;;19.87;70.63;99069.45;105980;1277;98993;-68
2022/08/24 05:22:27;;;;;;;39.90;16.60;;;;;;;19.91;70.59;99076.27;106043;1277;111394;-67
2022/08/24 05:24:58;;;;;;;41.00;17.50;;;;;;;19.95;70.68;99080.84;105907;1277;97925;-68
2022/08/24 05:27:26;;;;;;;43.20;17.70;;;;;;;20.00;70.52;99072.59;106056;1276;108449;-69
2022/08/24 05:29:55;;;;;;;34.20;14.30;;;;;;;20.04;70.71;99070.27;105871;1277;97847;-67
2022/08/24 05:32:24;;;;;;;42.10;16.80;;;;;;;20.08;70.72;99072.52;105991;1276;97890;-67
2022/08/24 05:34:54;;;;;;;38.00;15.50;;;;;;;20.12;70.66;99082.73;106074;1276;110934;-68
2022/08/24 05:37:22;;;;;;;40.20;15.30;;;;;;;20.16;70.75;99087.63;105960;1276;96267;-68
2022/08/24 05:39:51;;;;;;;32.40;13.60;;;;;;;20.21;70.80;99089.60;106005;1277;108225;-70
2022/08/24 05:42:23;;;;;;;35.60;13.40;;;;;;;20.26;70.67;99093.34;105971;1277;97980;-69
2022/08/24 05:44:51;;;;;;;45.30;15.30;;;;;;;20.30;70.81;99089.85;105997;1277;97954;-68
2022/08/24 05:47:19;;;;;;;41.90;14.00;;;;;;;20.36;70.53;99094.83;105980;1276;111068;-70
2022/08/24 05:49:51;;;;;;;33.90;13.10;;;;;;;20.38;70.78;99099.73;106028;1277;97884;-69
2022/08/24 05:52:26;;;;;;;39.40;13.00;;;;;;;20.43;70.72;99096.84;105943;1276;107682;-68
2022/08/24 05:54:58;;;;;;;37.10;13.20;;;;;;;20.50;70.92;99093.21;105904;1276;97883;-69
2022/08/24 05:57:32;;;;;;;37.80;14.20;;;;;;;20.56;70.91;99097.08;105854;1277;97862;-69
2022/08/24 06:00:00;;;;;;;35.00;13.50;;;;;;;20.61;70.84;99096.10;105940;1277;112022;-68
2022/08/24 06:02:30;;;;;;;39.80;13.80;;;;;;;20.65;70.87;99097.48;105987;1276;98005;-70
2022/08/24 06:05:04;;;;;;;45.00;14.60;;;;;;;20.72;70.97;99104.23;106121;1277;107877;-69
2022/08/24 06:07:32;;;;;;;37.20;13.50;;;;;;;20.81;71.07;99105.39;106082;1277;96542;-70
2022/08/24 06:10:07;;;;;;;34.90;12.20;;;;;;;20.90;71.29;99103.11;106025;1276;97860;-68
2022/08/24 06:12:56;;;;;;;37.50;14.90;;;;;;;21.02;71.07;99108.79;106062;1277;112003;-69
2022/08/24 06:15:27;;;;;;;38.70;14.30;;;;;;;21.10;70.79;99105.70;105792;1277;96396;-69
2022/08/24 06:17:57;;;;;;;44.50;13.60;;;;;;;21.16;70.83;99102.82;106014;1277;108677;-68
2022/08/24 06:20:27;;;;;;;36.30;12.70;;;;;;;21.18;70.80;99102.54;105934;1277;97943;-68
2022/08/24 06:22:55;;;;;;;39.30;13.90;;;;;;;21.19;70.77;99095.64;106004;1276;97879;-68
2022/08/24 06:28:11;;;;;;;41.10;13.30;;;;;;;21.29;71.09;99089.73;105934;1277;99145;-69
2022/08/24 06:30:44;;;;;;;40.70;13.80;;;;;;;21.35;70.80;99085.80;105857;1277;107023;-69
2022/08/24 06:33:13;;;;;;;41.90;12.30;;;;;;;21.39;70.94;99084.42;105872;1276;97887;-68
2022/08/24 06:35:41;;;;;;;38.30;11.60;;;;;;;21.43;70.97;99087.80;105939;1276;99248;-69
2022/08/24 06:38:14;;;;;;;40.20;12.80;;;;;;;21.50;70.96;99094.84;105940;1277;111482;-70
2022/08/24 06:40:52;;;;;;;43.80;12.30;;;;;;;21.60;71.04;99096.09;105922;1276;97944;-70
2022/08/24 06:43:20;;;;;;;43.60;13.20;;;;;;;21.69;70.94;99102.80;105958;1276;107794;-68
2022/08/24 06:45:48;;;;;;;38.80;12.50;;;;;;;21.73;70.94;99102.86;106031;1276;95265;-69
2022/08/24 06:48:20;;;;;;;38.30;11.60;;;;;;;21.78;70.86;99106.07;105996;1276;97889;-70
2022/08/24 06:50:52;;;;;;;43.90;13.40;;;;;;;21.84;70.94;99111.41;105936;1276;110158;-69
2022/08/24 06:53:20;;;;;;;40.70;12.00;;;;;;;21.92;71.05;99116.88;105803;1277;97906;-68
2022/08/24 06:55:55;;;;;;;42.20;15.10;;;;;;;22.01;71.08;99118.46;105986;1276;108103;-70
2022/08/24 06:58:28;;;;;;;38.30;13.10;;;;;;;22.09;70.85;99114.70;105913;1276;97969;-70
2022/08/24 07:01:07;;;;;;;44.50;13.10;;;;;;;22.16;70.68;99124.86;105852;1276;97868;-69
2022/08/24 07:03:35;;;;;;;43.00;13.20;;;;;;;22.28;70.89;99123.23;105971;1276;111431;-69
2022/08/24 07:06:07;;;;;;;41.90;13.70;;;;;;;22.39;70.71;99121.01;106054;1276;96648;-69
2022/08/24 07:08:41;;;;;;;40.50;12.60;;;;;;;22.53;70.75;99117.89;106009;1275;108381;-70
2022/08/24 07:11:13;;;;;;;44.90;11.90;;;;;;;22.67;70.85;99116.23;106063;1276;97959;-69
2022/08/24 07:13:47;;;;;;;40.10;12.30;;;;;;;22.83;70.68;99108.80;105907;1277;97881;-69
2022/08/24 07:16:20;;;;;;;36.60;11.30;;;;;;;23.01;70.78;99102.45;105917;1277;111452;-68
2022/08/24 07:18:50;;;;;;;43.50;11.90;;;;;;;23.52;69.93;99104.27;105939;1277;97714;-69
2022/08/24 07:21:25;;;;;;;46.40;12.10;;;;;;;24.33;69.52;99102.58;105822;1278;107832;-69
2022/08/24 07:23:58;;;;;;;39.70;10.90;;;;;;;25.25;69.14;99099.95;105762;1276;96433;-69
2022/08/24 07:26:30;;;;;;;36.60;10.50;;;;;;;26.17;69.07;99095.95;105815;1277;97902;-69
2022/08/24 07:29:13;;;;;;;45.60;12.60;;;;;;;27.06;68.51;99096.09;105802;1277;111692;-68
2022/08/24 07:32:01;;;;;;;38.80;10.90;;;;;;;28.07;68.50;99094.29;105792;1277;97860;-70
2022/08/24 07:34:32;;;;;;;43.10;11.30;;;;;;;28.92;68.14;99092.24;105808;1277;107751;-68
2022/08/24 07:37:02;;;;;;;39.30;10.30;;;;;;;29.60;67.83;99096.79;105895;1277;97997;-69
2022/08/24 07:39:34;;;;;;;39.10;11.60;;;;;;;30.35;67.49;99097.80;106004;1276;97952;-70
2022/08/24 07:42:07;;;;;;;38.80;10.80;;;;;;;31.04;67.35;99104.66;106013;1276;111196;-69
2022/08/24 07:44:43;;;;;;;43.20;11.30;;;;;;;31.86;67.05;99109.67;105853;1276;98468;-69
2022/08/24 07:47:10;;;;;;;46.60;11.80;;;;;;;32.62;66.99;99109.01;105941;1276;107484;-69
2022/08/24 07:49:59;;;;;;;46.20;11.60;;;;;;;33.26;65.84;99102.85;105963;1276;98045;-72
2022/08/24 07:52:27;;;;;;;39.00;11.10;;;;;;;33.70;65.81;99105.40;106052;1276;98712;-70
2022/08/24 07:54:56;;;;;;;47.40;11.70;;;;;;;34.14;65.46;99106.00;106013;1276;111428;-70
2022/08/24 07:57:24;;;;;;;37.20;10.10;;;;;;;34.64;65.18;99101.25;105948;1276;97997;-70
2022/08/24 08:00:05;;;;;;;42.30;11.70;;;;;;;35.06;64.41;99104.30;105900;1277;108584;-70
2022/08/24 08:02:33;;;;;;;38.80;10.90;;;;;;;35.63;64.27;99104.95;105871;1277;97856;-70
2022/08/24 08:05:07;;;;;;;49.90;12.80;;;;;;;36.15;63.74;99102.58;105806;1278;95273;-70
2022/08/24 08:07:36;;;;;;;42.20;10.50;;;;;;;36.47;63.32;99102.71;105869;1278;111405;-69
2022/08/24 08:10:09;;;;;;;46.00;11.20;;;;;;;36.87;62.89;99105.21;105820;1281;95724;-71
2022/08/24 08:12:37;;;;;;;40.60;12.60;;;;;;;37.14;62.04;99103.91;105908;1277;107889;-68
2022/08/24 08:15:10;;;;;;;40.10;11.90;;;;;;;37.35;61.43;99103.42;106106;1276;97871;-70
2022/08/24 08:17:39;;;;;;;43.60;11.20;;;;;;;37.72;61.19;99099.98;105951;1276;97956;-70
2022/08/24 08:20:12;;;;;;;40.80;11.50;;;;;;;38.12;60.70;99094.34;105948;1276;112019;-70
2022/08/24 08:25:38;;;;;;;39.30;11.30;;;;;;;37.95;59.53;99091.06;105870;1277;108212;-70
2022/08/24 08:28:07;;;;;;;52.00;11.40;;;;;;;37.72;59.40;99091.38;105848;1276;97959;-69
2022/08/24 08:30:56;;;;;;;43.80;10.50;;;;;;;37.72;58.16;99084.16;105902;1277;97881;-70
2022/08/24 08:33:30;;;;;;;;;;;;;;;37.90;57.59;99082.77;105909;1278;111915;-70
2022/08/24 08:36:10;;;;;;;42.30;10.90;;;;;;;37.95;57.08;99074.23;105905;1278;97117;-70
2022/08/24 08:38:42;;;;;;;41.80;11.90;;;;;;;38.19;56.64;99073.04;105935;1276;107830;-69
2022/08/24 08:41:29;;;;;;;47.60;10.20;;;;;;;38.50;56.34;99076.41;106019;1276;97970;-70
2022/08/24 08:44:33;;;;;;;52.10;12.00;;;;;;;38.90;55.45;99078.38;106151;1276;98019;-69
2022/08/24 08:47:11;;;;;;;55.70;12.50;;;;;;;39.33;55.08;99079.48;106089;1276;111379;-68
2022/08/24 08:50:07;;;;;;;47.70;11.70;;;;;;;39.54;54.83;99084.60;106059;1276;97894;-69
2022/08/24 08:52:50;;;;;;;62.10;11.80;;;;;;;39.52;53.69;99083.73;105931;1277;107621;-69
2022/08/24 08:55:44;;;;;;;52.30;11.90;;;;;;;39.70;53.39;99080.71;105985;1276;95281;-70
2022/08/24 08:58:43;;;;;;;54.00;11.50;;;;;;;39.86;52.78;99081.67;106143;1276;97966;-69
2022/08/24 09:01:55;;;;;;;47.50;10.60;;;;;;;40.05;52.28;99083.70;106048;1276;111522;-68
2022/08/24 09:04:54;;;;;;;56.80;11.90;;;;;;;39.89;51.08;99084.01;106093;1277;97824;-70
2022/08/24 09:08:08;;;;;;;60.70;13.40;;;;;;;39.45;50.85;99088.14;106004;1276;107746;-69
2022/08/24 09:11:06;;;;;;;54.70;10.80;;;;;;;39.51;50.44;99090.65;105946;1276;97989;-70
2022/08/24 09:14:04;;;;;;;65.20;12.80;;;;;;;39.66;49.74;99091.17;105820;1278;95300;-71
2022/08/24 09:16:55;;;;;;;66.50;13.20;;;;;;;39.63;49.25;99093.64;106041;1277;111161;-71
2022/08/24 09:20:01;;;;;;;75.90;14.10;;;;;;;39.75;48.98;99098.70;106098;1276;97884;-71
2022/08/24 09:22:42;;;;;;;71.30;12.80;;;;;;;39.74;48.15;99095.39;106012;1277;107929;-71
2022/08/24 09:25:34;;;;;;;67.10;13.00;;;;;;;39.54;48.35;99092.02;105932;1278;97998;-70
2022/08/24 09:28:34;;;;;;;67.20;13.50;;;;;;;39.63;47.68;99091.73;105931;1276;97009;-70
2022/08/24 09:31:11;;;;;;;61.00;12.10;;;;;;;39.81;47.15;99087.20;105640;1278;111263;-70
2022/08/24 09:33:43;;;;;;;;;;;;;;;39.94;46.78;99088.14;105962;1275;96695;-70
2022/08/24 09:36:40;;;;;;;65.20;11.80;;;;;;;39.98;46.45;99089.01;105932;1276;107704;-68
2022/08/24 09:39:17;;;;;;;70.30;13.10;;;;;;;40.18;46.06;99083.16;105900;1277;98663;-71
2022/08/24 09:42:28;;;;;;;77.90;14.30;;;;;;;40.41;45.95;99085.45;105915;1277;95280;-71
2022/08/24 09:45:13;;;;;;;72.50;13.20;;;;;;;40.80;45.50;99082.43;105748;1277;111443;-71
2022/08/24 09:47:47;;;;;;;61.40;13.50;;;;;;;40.93;44.99;99076.33;106030;1275;97762;-71
2022/08/24 09:50:40;;;;;;;61.50;13.00;;;;;;;41.01;44.48;99073.85;105996;1275;107681;-69
2022/08/24 09:53:13;;;;;;;58.20;11.00;;;;;;;40.86;43.89;99077.21;105926;1276;98000;-70
2022/08/24 09:56:28;;;;;;;75.00;13.20;;;;;;;40.40;43.64;99077.34;105955;1277;97892;-71
2022/08/24 09:59:33;;;;;;;57.90;11.90;;;;;;;39.88;43.70;99076.50;105997;1278;111619;-69
2022/08/24 10:02:23;;;;;;;60.10;12.60;;;;;;;39.56;43.38;99075.27;105967;1275;98603;-70
2022/08/24 10:05:16;;;;;;;61.30;12.20;;;;;;;39.28;42.70;99071.99;105824;1277;107665;-71
2022/08/24 10:08:37;;;;;;;68.00;13.60;;;;;;;38.80;42.68;99072.74;105797;1277;96545;-71
2022/08/24 10:11:30;;;;;;;69.10;12.30;;;;;;;38.53;42.48;99073.10;105893;1275;97753;-69
2022/08/24 10:14:35;;;;;;;67.70;11.90;;;;;;;38.31;42.02;99071.73;105845;1276;111507;-69
2022/08/24 10:17:05;;;;;;;70.20;12.10;;;;;;;38.04;41.83;99065.92;105895;1275;95887;-69
2022/08/24 10:19:48;;;;;;;56.40;12.40;;;;;;;37.70;41.95;99064.98;105920;1276;107776;-70
2022/08/24 10:22:44;;;;;;;65.90;11.90;;;;;;;37.49;41.60;99064.05;105892;1277;98483;-71
2022/08/24 10:25:35;;;;;;;71.90;14.00;;;;;;;37.24;41.39;99065.02;105923;1275;95294;-70
2022/08/24 10:28:41;;;;;;;71.10;13.10;;;;;;;36.89;41.03;99068.77;105967;1276;111953;-71
2022/08/24 10:31:22;;;;;;;73.90;13.30;;;;;;;36.54;40.92;99066.11;106027;1275;97877;-71
2022/08/24 10:34:20;;;;;;;66.70;13.30;;;;;;;36.16;40.80;99065.88;105948;1276;107707;-71
2022/08/24 10:37:23;;;;;;;59.20;12.40;;;;;;;35.80;40.67;99067.70;106009;1278;95219;-70
2022/08/24 10:40:04;;;;;;;54.70;10.80;;;;;;;35.51;40.66;99064.63;105986;1277;97867;-69
2022/08/24 10:45:34;;;;;;;68.20;12.00;;;;;;;34.93;40.83;99054.04;106406;1276;98453;-68
2022/08/24 10:48:44;;;;;;;68.50;12.40;;;;;;;34.77;40.80;99046.70;105838;1277;108287;-70
2022/08/24 10:51:50;;;;;;;62.70;10.90;;;;;;;34.62;40.71;99045.02;105842;1277;97911;-69
2022/08/24 10:54:23;;;;;;;66.80;11.70;;;;;;;34.50;40.63;99037.78;105913;1275;97989;-71
2022/08/24 10:57:10;;;;;;;63.40;12.30;;;;;;;34.33;40.45;99040.02;105830;1276;111265;-73
2022/08/24 11:00:13;;;;;;;77.10;14.60;;;;;;;34.20;40.65;99037.92;105942;1276;97922;-70
2022/08/24 11:03:11;;;;;;;63.70;11.60;;;;;;;34.09;40.89;99045.27;105868;1276;107603;-69
2022/08/24 11:05:55;;;;;;;64.80;12.50;;;;;;;33.97;40.68;99048.06;105897;1275;98227;-68
2022/08/24 11:08:27;;;;;;;61.70;11.40;;;;;;;33.86;40.74;99056.25;105892;1275;95182;-69
2022/08/24 11:11:09;;;;;;;58.70;12.90;;;;;;;33.72;40.98;99058.26;105937;1276;112057;-69
2022/08/24 11:13:57;;;;;;;70.70;11.70;;;;;;;33.57;41.05;99057.48;105960;1276;98378;-71
2022/08/24 11:16:45;;;;;;;77.00;12.50;;;;;;;33.37;41.07;99057.69;106023;1276;108702;-70
2022/08/24 11:19:32;;;;;;;60.90;12.60;;;;;;;33.20;40.89;99059.95;106021;1276;98005;-69
2022/08/24 11:22:29;;;;;;;71.30;12.80;;;;;;;33.04;40.98;99060.75;105968;1276;97909;-69
2022/08/24 11:25:18;;;;;;;61.60;10.70;;;;;;;32.91;41.06;99055.83;106025;1276;113826;-68
2022/08/24 11:27:56;;;;;;;73.40;11.80;;;;;;;32.85;41.19;99055.37;105982;1276;96332;-69
2022/08/24 11:30:30;;;;;;;60.50;11.80;;;;;;;32.79;41.43;99060.23;106057;1276;107753;-68
2022/08/24 11:33:05;;;;;;;73.50;13.10;;;;;;;32.70;41.25;99063.73;105968;1276;97909;-70
2022/08/24 11:35:32;;;;;;;64.70;13.00;;;;;;;32.61;41.47;99063.39;106047;1276;97968;-68
2022/08/24 11:38:25;;;;;;;61.30;12.10;;;;;;;32.60;41.78;99062.52;106398;1276;112047;-70
2022/08/24 11:41:02;;;;;;;77.00;12.70;;;;;;;32.61;41.77;99064.05;105961;1277;97893;-69
2022/08/24 11:43:46;;;;;;;60.30;11.30;;;;;;;32.64;41.77;99061.55;106043;1276;108354;-69
2022/08/24 11:46:49;;;;;;;61.60;11.60;;;;;;;32.71;41.96;99059.16;106035;1276;96715;-69
2022/08/24 11:49:32;;;;;;;61.90;10.40;;;;;;;32.82;41.89;99053.27;105810;1276;98051;-68
2022/08/24 11:52:33;;;;;;;67.20;12.10;;;;;;;32.93;42.08;99055.02;105898;1276;110972;-68
2022/08/24 11:55:13;;;;;;;69.60;11.70;;;;;;;32.99;42.04;99052.55;105617;1276;98477;-70
2022/08/24 11:58:01;;;;;;;71.20;12.30;;;;;;;32.96;42.12;99054.93;105913;1276;108414;-70
2022/08/24 12:00:44;;;;;;;72.30;12.10;;;;;;;32.97;42.26;99054.19;106052;1276;97823;-69
2022/08/24 12:03:31;;;;;;;65.30;11.30;;;;;;;33.01;42.43;99056.97;106063;1276;97345;-69
2022/08/24 12:06:08;;;;;;;72.40;11.70;;;;;;;33.01;42.42;99055.76;105907;1276;111404;-68